createdAt,value
2018-01-14T00:01:28.761Z,88.50
2018-01-14T00:03:56.900Z,88.10
2018-01-14T00:06:25.061Z,88.50
2018-01-14T00:08:53.193Z,88.90
2018-01-14T00:11:21.356Z,89.00
2018-01-14T00:13:49.479Z,88.80
2018-01-14T00:16:17.642Z,88.50
2018-01-14T00:18:45.783Z,88.70
2018-01-14T00:21:13.936Z,88.70
2018-01-14T00:23:42.065Z,88.70
2018-01-14T00:26:10.230Z,89.10
2018-01-14T00:28:38.362Z,89.30
2018-01-14T00:31:06.512Z,88.90
2018-01-14T00:33:34.652Z,89.10
2018-01-14T00:36:02.800Z,88.80
2018-01-14T00:38:30.944Z,88.90
2018-01-14T00:40:59.092Z,88.50
2018-01-14T00:43:27.227Z,88.70
2018-01-14T00:45:56.149Z,88.30
2018-01-14T00:48:24.281Z,88.30
2018-01-14T00:50:53.204Z,88.50
2018-01-14T00:53:21.337Z,88.40
2018-01-14T00:55:49.493Z,87.20
2018-01-14T00:58:17.632Z,87.10
2018-01-14T01:00:45.790Z,86.90
2018-01-14T01:03:13.918Z,87.00
2018-01-14T01:05:42.076Z,87.70
2018-01-14T01:08:10.209Z,88.10
2018-01-14T01:10:38.369Z,88.70
2018-01-14T01:13:06.507Z,88.70
2018-01-14T01:15:34.662Z,88.70
2018-01-14T01:18:02.790Z,88.70
2018-01-14T01:20:30.963Z,89.20
2018-01-14T01:22:59.089Z,89.40
2018-01-14T01:25:27.247Z,89.10
2018-01-14T01:27:55.378Z,89.20
2018-01-14T01:30:23.538Z,89.20
2018-01-14T01:32:51.676Z,89.00
2018-01-14T01:35:19.835Z,88.70
2018-01-14T01:37:47.968Z,88.50
2018-01-14T01:40:16.126Z,88.40
2018-01-14T01:42:44.274Z,88.50
2018-01-14T01:45:12.446Z,88.70
2018-01-14T01:47:40.577Z,88.00
2018-01-14T01:50:08.738Z,87.80
2018-01-14T01:52:36.869Z,88.00
2018-01-14T01:55:05.025Z,88.00
2018-01-14T01:57:33.159Z,87.50
2018-01-14T02:00:01.321Z,86.70
2018-01-14T02:02:29.445Z,86.40
2018-01-14T02:04:57.617Z,86.60
2018-01-14T02:07:25.750Z,86.70
2018-01-14T02:09:53.882Z,86.40
2018-01-14T02:12:22.038Z,86.60
2018-01-14T02:14:50.170Z,86.10
2018-01-14T02:17:18.332Z,86.20
2018-01-14T02:19:46.470Z,86.50
2018-01-14T02:22:14.616Z,86.60
2018-01-14T02:24:42.750Z,86.90
2018-01-14T02:27:11.668Z,87.30
2018-01-14T02:29:39.803Z,87.30
2018-01-14T02:32:08.716Z,87.40
2018-01-14T02:34:36.847Z,87.50
2018-01-14T02:37:05.006Z,87.30
2018-01-14T02:39:33.137Z,87.30
2018-01-14T02:42:01.297Z,86.90
2018-01-14T02:44:29.429Z,87.10
2018-01-14T02:46:57.582Z,87.20
2018-01-14T02:49:25.714Z,87.30
2018-01-14T02:51:53.875Z,87.50
2018-01-14T02:54:21.998Z,87.30
2018-01-14T02:56:50.160Z,87.40
2018-01-14T02:59:18.288Z,87.20
2018-01-14T03:01:46.452Z,86.80
2018-01-14T03:04:14.585Z,86.70
2018-01-14T03:06:42.744Z,87.30
2018-01-14T03:09:10.872Z,86.80
2018-01-14T03:11:39.024Z,87.40
2018-01-14T03:14:07.160Z,87.80
2018-01-14T03:16:35.316Z,87.20
2018-01-14T03:19:04.220Z,86.90
2018-01-14T03:21:32.374Z,86.80
2018-01-14T03:24:01.274Z,87.10
2018-01-14T03:26:29.457Z,87.10
2018-01-14T03:28:57.587Z,86.90
2018-01-14T03:31:25.748Z,87.00
2018-01-14T03:33:53.872Z,87.20
2018-01-14T03:36:22.028Z,86.90
2018-01-14T03:38:50.924Z,87.20
2018-01-14T03:41:19.076Z,87.30
2018-01-14T03:43:47.208Z,87.00
2018-01-14T03:46:15.370Z,87.10
2018-01-14T03:48:43.501Z,87.20
2018-01-14T03:51:11.660Z,86.90
2018-01-14T03:53:39.794Z,87.20
2018-01-14T03:56:07.949Z,87.20
2018-01-14T03:58:36.086Z,87.20
2018-01-14T04:01:04.250Z,87.30
2018-01-14T04:03:32.381Z,87.60
2018-01-14T04:06:00.546Z,87.60
2018-01-14T04:08:28.676Z,87.80
2018-01-14T04:10:56.837Z,87.90
2018-01-14T04:13:24.965Z,88.20
2018-01-14T04:15:53.118Z,88.70
2018-01-14T04:18:21.253Z,88.20
2018-01-14T04:20:49.405Z,88.40
2018-01-14T04:23:17.537Z,88.60
2018-01-14T04:25:46.462Z,88.90
2018-01-14T04:28:14.593Z,89.00
2018-01-14T04:30:42.717Z,89.10
2018-01-14T04:33:10.881Z,89.40
2018-01-14T04:35:39.019Z,89.60
2018-01-14T04:38:07.178Z,89.60
2018-01-14T04:40:35.305Z,89.10
2018-01-14T04:43:03.471Z,89.10
2018-01-14T04:45:31.607Z,88.90
2018-01-14T04:47:59.760Z,88.80
2018-01-14T04:50:27.893Z,89.40
2018-01-14T04:52:56.045Z,89.40
2018-01-14T04:55:24.178Z,88.90
2018-01-14T04:57:52.325Z,88.50
2018-01-14T05:00:20.465Z,88.20
2018-01-14T05:02:49.386Z,89.50
2018-01-14T05:05:17.512Z,88.70
2018-01-14T05:07:46.436Z,88.60
2018-01-14T05:10:14.570Z,88.60
2018-01-14T05:12:42.731Z,88.90
2018-01-14T05:15:10.857Z,89.40
2018-01-14T05:17:39.029Z,89.80
2018-01-14T05:20:07.169Z,90.00
2018-01-14T05:22:36.110Z,90.40
2018-01-14T05:25:04.245Z,90.30
2018-01-14T05:27:32.414Z,90.50
2018-01-14T05:30:00.546Z,90.60
2018-01-14T05:32:28.718Z,90.70
2018-01-14T05:34:56.861Z,90.80
2018-01-14T05:37:25.015Z,91.20
2018-01-14T05:39:53.165Z,90.90
2018-01-14T05:42:21.338Z,90.90
2018-01-14T05:44:49.474Z,90.90
2018-01-14T05:47:17.638Z,91.00
2018-01-14T05:49:45.774Z,91.10
2018-01-14T05:52:13.942Z,91.10
2018-01-14T05:54:42.841Z,91.40
2018-01-14T05:57:11.013Z,91.40
2018-01-14T05:59:39.931Z,91.60
2018-01-14T06:02:08.089Z,91.60
2018-01-14T06:04:36.227Z,91.80
2018-01-14T06:07:04.385Z,92.00
2018-01-14T06:09:32.523Z,92.20
2018-01-14T06:12:00.687Z,92.40
2018-01-14T06:14:28.829Z,92.50
2018-01-14T06:16:56.987Z,92.50
2018-01-14T06:19:25.116Z,92.70
2018-01-14T06:21:53.281Z,92.80
2018-01-14T06:24:21.416Z,92.80
2018-01-14T06:26:49.590Z,92.90
2018-01-14T06:29:17.738Z,93.00
2018-01-14T06:31:45.901Z,93.20
2018-01-14T06:34:14.036Z,93.10
2018-01-14T06:36:42.201Z,93.30
2018-01-14T06:39:10.339Z,93.30
2018-01-14T06:41:38.502Z,93.40
2018-01-14T06:44:06.640Z,93.40
2018-01-14T06:46:34.804Z,93.50
2018-01-14T06:49:02.949Z,93.50
2018-01-14T06:51:31.881Z,93.90
2018-01-14T06:54:00.017Z,93.60
2018-01-14T06:56:28.945Z,93.50
2018-01-14T06:58:57.083Z,93.60
2018-01-14T07:01:26.028Z,93.50
2018-01-14T07:03:54.163Z,93.50
2018-01-14T07:06:22.297Z,93.50
2018-01-14T07:08:50.463Z,93.50
2018-01-14T07:11:18.592Z,93.40
2018-01-14T07:13:46.765Z,93.50
2018-01-14T07:16:14.905Z,93.40
2018-01-14T07:18:43.073Z,93.30
2018-01-14T07:21:11.205Z,93.40
2018-01-14T07:23:39.375Z,93.40
2018-01-14T07:26:07.522Z,93.40
2018-01-14T07:28:35.709Z,93.40
2018-01-14T07:31:03.850Z,93.40
2018-01-14T07:33:32.786Z,93.40
2018-01-14T07:36:00.913Z,93.50
2018-01-14T07:38:29.842Z,93.40
2018-01-14T07:40:57.986Z,93.30
2018-01-14T07:43:26.921Z,93.40
2018-01-14T07:45:55.060Z,93.40
2018-01-14T07:48:23.230Z,93.40
2018-01-14T07:50:51.365Z,93.50
2018-01-14T07:53:19.525Z,93.40
2018-01-14T07:55:47.663Z,93.50
2018-01-14T07:58:15.818Z,93.50
2018-01-14T08:00:43.962Z,93.50
2018-01-14T08:03:12.128Z,93.60
2018-01-14T08:05:40.274Z,93.60
2018-01-14T08:08:08.428Z,93.70
2018-01-14T08:10:36.587Z,93.70
2018-01-14T08:13:04.733Z,93.70
2018-01-14T08:15:32.873Z,93.70
2018-01-14T08:18:01.034Z,93.60
2018-01-14T08:20:29.169Z,93.70
2018-01-14T08:22:57.350Z,93.60
2018-01-14T08:25:26.249Z,93.10
2018-01-14T08:27:54.422Z,93.20
2018-01-14T08:30:22.560Z,93.00
2018-01-14T08:32:50.722Z,93.00
2018-01-14T08:35:18.861Z,92.80
2018-01-14T08:37:47.019Z,92.80
2018-01-14T08:40:15.154Z,92.60
2018-01-14T08:42:43.320Z,92.50
2018-01-14T08:45:11.471Z,92.40
2018-01-14T08:47:39.634Z,92.20
2018-01-14T08:50:07.773Z,92.00
2018-01-14T08:52:35.947Z,91.90
2018-01-14T08:55:04.093Z,91.80
2018-01-14T08:57:32.240Z,91.70
2018-01-14T09:00:00.426Z,91.70
2018-01-14T09:02:28.582Z,91.90
2018-01-14T09:04:56.721Z,91.70
2018-01-14T09:07:24.888Z,91.80
2018-01-14T09:09:53.079Z,91.40
2018-01-14T09:12:21.241Z,91.10
2018-01-14T09:14:49.428Z,91.00
2018-01-14T09:17:17.631Z,91.30
2018-01-14T09:19:46.162Z,91.30
2018-01-14T09:22:14.317Z,90.90
2018-01-14T09:24:42.465Z,90.70
2018-01-14T09:27:10.589Z,90.50
2018-01-14T09:29:38.833Z,90.50
2018-01-14T09:32:06.967Z,90.30
2018-01-14T09:34:35.128Z,90.30
2018-01-14T09:37:03.275Z,90.10
2018-01-14T09:39:31.546Z,90.00
2018-01-14T09:41:59.644Z,90.00
2018-01-14T09:44:29.357Z,90.10
2018-01-14T09:46:57.510Z,89.80
2018-01-14T09:49:25.661Z,89.40
2018-01-14T09:51:53.795Z,90.10
2018-01-14T09:54:21.956Z,90.20
2018-01-14T09:56:50.088Z,90.10
2018-01-14T09:59:18.258Z,90.30
2018-01-14T10:01:46.408Z,89.70
2018-01-14T10:04:14.560Z,88.80
2018-01-14T10:06:42.691Z,88.50
2018-01-14T10:09:10.869Z,88.90
2018-01-14T10:11:39.766Z,87.90
2018-01-14T10:14:07.931Z,87.90
2018-01-14T10:16:36.824Z,89.10
2018-01-14T10:19:05.021Z,89.70
2018-01-14T10:21:33.158Z,88.20
2018-01-14T10:24:01.334Z,86.90
2018-01-14T10:26:29.470Z,86.70
2018-01-14T10:28:57.658Z,87.30
2018-01-14T10:31:25.814Z,87.60
2018-01-14T10:33:53.988Z,87.10
2018-01-14T10:36:22.157Z,87.30
2018-01-14T10:38:51.238Z,87.60
2018-01-14T10:41:19.402Z,87.20
2018-01-14T10:43:47.612Z,86.30
2018-01-14T10:46:15.805Z,85.90
2018-01-14T10:48:43.965Z,86.70
2018-01-14T10:51:12.105Z,84.90
2018-01-14T10:53:40.298Z,84.40
2018-01-14T10:56:08.432Z,84.60
2018-01-14T10:58:36.589Z,84.30
2018-01-14T11:01:05.561Z,83.60
2018-01-14T11:03:33.692Z,83.50
2018-01-14T11:06:01.820Z,83.70
2018-01-14T11:08:30.029Z,83.70
2018-01-14T11:10:58.162Z,83.90
2018-01-14T11:13:27.089Z,84.10
2018-01-14T11:15:55.220Z,84.00
2018-01-14T11:18:23.389Z,83.30
2018-01-14T11:20:51.525Z,84.00
2018-01-14T11:23:19.716Z,81.60
2018-01-14T11:25:47.857Z,82.00
2018-01-14T11:28:16.785Z,81.80
2018-01-14T11:30:45.013Z,81.80
2018-01-14T11:33:13.185Z,81.80
2018-01-14T11:35:41.326Z,82.10
2018-01-14T11:38:09.482Z,82.20
2018-01-14T11:40:37.646Z,81.90
2018-01-14T11:43:05.815Z,82.10
2018-01-14T11:45:33.941Z,81.40
2018-01-14T11:48:02.100Z,80.60
2018-01-14T11:50:30.243Z,81.20
2018-01-14T11:52:58.380Z,80.30
2018-01-14T11:55:26.540Z,80.10
2018-01-14T11:57:54.676Z,79.50
2018-01-14T12:00:22.863Z,80.40
2018-01-14T12:02:51.056Z,80.20
2018-01-14T12:05:19.974Z,78.80
2018-01-14T12:07:48.169Z,78.70
2018-01-14T12:10:16.337Z,78.60
2018-01-14T12:12:44.462Z,78.70
2018-01-14T12:15:12.621Z,79.20
2018-01-14T12:17:41.529Z,79.30
2018-01-14T12:20:09.687Z,79.30
2018-01-14T12:22:37.852Z,79.20
2018-01-14T12:25:06.032Z,79.50
2018-01-14T12:27:34.212Z,80.10
2018-01-14T12:30:02.366Z,80.70
2018-01-14T12:32:42.195Z,82.00
2018-01-14T12:35:10.792Z,82.40
2018-01-14T12:37:39.022Z,82.30
2018-01-14T12:40:07.312Z,82.80
2018-01-14T12:42:35.582Z,82.90
2018-01-14T12:45:03.807Z,83.90
2018-01-14T12:47:31.941Z,84.40
2018-01-14T12:50:00.274Z,84.70
2018-01-14T12:52:28.448Z,85.60
2018-01-14T12:54:57.380Z,86.70
2018-01-14T12:57:25.517Z,86.70
2018-01-14T12:59:54.431Z,87.20
2018-01-14T13:02:22.568Z,87.20
2018-01-14T13:04:51.510Z,87.20
2018-01-14T13:07:19.643Z,87.00
2018-01-14T13:09:48.568Z,87.50
2018-01-14T13:12:16.696Z,87.30
2018-01-14T13:14:45.633Z,87.50
2018-01-14T13:17:13.770Z,87.60
2018-01-14T13:19:42.706Z,87.70
2018-01-14T13:22:10.876Z,87.70
2018-01-14T13:24:39.032Z,87.90
2018-01-14T13:27:07.173Z,88.00
2018-01-14T13:29:35.335Z,88.00
2018-01-14T13:32:03.468Z,88.20
2018-01-14T13:34:31.635Z,88.50
2018-01-14T13:36:59.764Z,89.10
2018-01-14T13:39:28.005Z,89.20
2018-01-14T13:41:56.140Z,89.00
2018-01-14T13:44:24.403Z,89.60
2018-01-14T13:46:52.538Z,90.00
2018-01-14T13:49:20.709Z,90.10
2018-01-14T13:51:48.896Z,90.00
2018-01-14T13:54:17.061Z,89.80
2018-01-14T13:56:45.198Z,90.00
2018-01-14T13:59:13.369Z,90.10
2018-01-14T14:01:41.508Z,90.10
2018-01-14T14:04:10.439Z,90.40
2018-01-14T14:06:38.575Z,90.40
2018-01-14T14:09:07.501Z,90.50
2018-01-14T14:11:35.638Z,90.50
2018-01-14T14:14:04.570Z,90.50
2018-01-14T14:16:32.728Z,90.50
2018-01-14T14:19:00.916Z,90.30
2018-01-14T14:21:29.046Z,90.20
2018-01-14T14:23:57.213Z,90.30
2018-01-14T14:26:26.114Z,90.50
2018-01-14T14:28:54.298Z,90.50
2018-01-14T14:31:22.443Z,90.70
2018-01-14T14:33:50.625Z,90.70
2018-01-14T14:36:18.789Z,90.70
2018-01-14T14:38:46.928Z,90.70
2018-01-14T14:41:15.090Z,90.50
2018-01-14T14:43:43.222Z,90.50
2018-01-14T14:46:11.485Z,90.40
2018-01-14T14:48:39.619Z,90.40
2018-01-14T14:51:07.805Z,90.40
2018-01-14T14:53:35.941Z,90.50
2018-01-14T14:56:04.108Z,90.40
2018-01-14T14:58:32.232Z,90.30
2018-01-14T15:01:00.400Z,90.30
2018-01-14T15:03:28.541Z,90.50
2018-01-14T15:05:56.697Z,90.40
2018-01-14T15:08:24.833Z,90.50
2018-01-14T15:10:53.036Z,90.50
2018-01-14T15:13:22.028Z,90.40
2018-01-14T15:15:51.026Z,90.40
2018-01-14T15:18:19.173Z,90.30
2018-01-14T15:20:47.335Z,90.30
2018-01-14T15:23:15.476Z,90.40
2018-01-14T15:25:43.644Z,90.30
2018-01-14T15:28:11.787Z,90.30
2018-01-14T15:30:46.846Z,90.30
2018-01-14T15:33:15.020Z,90.40
2018-01-14T15:35:43.185Z,90.50
2018-01-14T15:38:11.319Z,90.80
2018-01-14T15:40:39.588Z,90.60
2018-01-14T15:43:07.722Z,90.60
2018-01-14T15:45:35.888Z,90.50
2018-01-14T15:48:04.050Z,90.70
2018-01-14T15:50:32.404Z,90.80
2018-01-14T15:53:01.303Z,90.60
2018-01-14T15:55:29.488Z,90.70
2018-01-14T15:57:57.638Z,90.60
2018-01-14T16:00:25.814Z,90.80
2018-01-14T16:02:54.714Z,91.10
2018-01-14T16:05:22.869Z,91.20
2018-01-14T16:07:51.006Z,91.00
2018-01-14T16:10:19.174Z,91.00
2018-01-14T16:12:47.351Z,91.00
2018-01-14T16:15:15.517Z,91.00
2018-01-14T16:17:43.658Z,91.10
2018-01-14T16:20:11.907Z,91.00
2018-01-14T16:22:40.037Z,91.00
2018-01-14T16:25:08.251Z,91.00
2018-01-14T16:27:36.383Z,91.10
2018-01-14T16:30:04.708Z,91.20
2018-01-14T16:32:32.848Z,91.20
2018-01-14T16:35:01.012Z,91.30
2018-01-14T16:37:29.141Z,91.50
2018-01-14T16:39:57.335Z,91.60
2018-01-14T16:42:25.466Z,91.70
2018-01-14T16:44:53.661Z,91.80
2018-01-14T16:47:21.809Z,91.80
2018-01-14T16:49:49.975Z,91.90
2018-01-14T16:52:18.134Z,91.90
2018-01-14T16:54:46.301Z,92.00
2018-01-14T16:57:14.486Z,92.00
2018-01-14T16:59:42.672Z,92.10
2018-01-14T17:02:10.804Z,92.10
2018-01-14T17:04:38.974Z,92.30
2018-01-14T17:07:07.124Z,92.40
2018-01-14T17:09:36.034Z,92.60
2018-01-14T17:12:04.871Z,92.50
2018-01-14T17:14:33.070Z,92.70
2018-01-14T17:17:01.258Z,92.80
2018-01-14T17:19:30.166Z,92.80
2018-01-14T17:21:58.320Z,92.70
2018-01-14T17:24:27.224Z,92.90
2018-01-14T17:26:55.424Z,92.90
2018-01-14T17:29:23.572Z,92.90
2018-01-14T17:31:51.734Z,93.00
2018-01-14T17:34:19.886Z,92.90
2018-01-14T17:36:48.041Z,93.20
2018-01-14T17:39:16.178Z,92.90
2018-01-14T17:41:44.345Z,92.90
2018-01-14T17:44:12.484Z,93.00
2018-01-14T17:46:41.421Z,93.10
2018-01-14T17:49:09.564Z,93.10
2018-01-14T17:51:38.543Z,93.20
2018-01-14T17:54:06.693Z,93.30
2018-01-14T17:56:34.858Z,93.20
2018-01-14T17:59:03.081Z,93.40
2018-01-14T18:01:31.251Z,93.40
2018-01-14T18:03:59.481Z,93.50
2018-01-14T18:06:27.645Z,93.50
2018-01-14T18:08:55.926Z,93.50
2018-01-14T18:11:24.093Z,93.60
2018-01-14T18:13:52.254Z,93.60
2018-01-14T18:16:20.537Z,93.60
2018-01-14T18:18:48.682Z,93.60
2018-01-14T18:23:51.279Z,93.70
2018-01-14T18:26:19.538Z,93.80
2018-01-14T18:28:47.967Z,93.80
2018-01-14T18:31:16.609Z,93.90
2018-01-14T18:33:45.313Z,93.90
2018-01-14T18:36:14.056Z,94.00
2018-01-14T18:38:43.113Z,94.10
2018-01-14T18:41:11.291Z,94.10
2018-01-14T18:43:39.439Z,94.20
2018-01-14T18:46:10.650Z,94.20
2018-01-14T18:48:38.796Z,94.20
2018-01-14T18:51:06.961Z,94.30
2018-01-14T18:53:35.160Z,94.30
2018-01-14T18:56:03.441Z,94.30
2018-01-14T18:58:32.666Z,94.30
2018-01-14T19:01:01.434Z,94.30
2018-01-14T19:03:29.696Z,94.30
2018-01-14T19:05:58.031Z,94.30
2018-01-14T19:08:28.135Z,94.20
2018-01-14T19:10:56.376Z,94.30
2018-01-14T19:13:24.527Z,94.30
2018-01-14T19:15:52.789Z,94.40
2018-01-14T19:18:20.979Z,94.50
2018-01-14T19:20:49.197Z,94.50
2018-01-14T19:23:17.396Z,94.50
2018-01-14T19:25:45.570Z,94.60
2018-01-14T19:28:13.785Z,94.60
2018-01-14T19:30:42.237Z,94.60
2018-01-14T19:33:10.459Z,94.60
2018-01-14T19:35:38.617Z,94.70
2018-01-14T19:38:06.813Z,94.80
2018-01-14T19:40:35.726Z,94.90
2018-01-14T19:43:03.897Z,94.90
2018-01-14T19:45:32.070Z,94.90
2018-01-14T19:48:00.249Z,95.00
2018-01-14T19:50:28.403Z,95.00
2018-01-14T19:52:56.574Z,95.00
2018-01-14T19:55:24.735Z,95.00
2018-01-14T19:57:52.900Z,94.90
2018-01-14T20:00:21.075Z,94.90
2018-01-14T20:02:49.262Z,94.90
2018-01-14T20:05:17.438Z,94.90
2018-01-14T20:07:45.622Z,95.00
2018-01-14T20:10:13.826Z,95.00
2018-01-14T20:12:41.998Z,95.00
2018-01-14T20:15:10.281Z,95.00
2018-01-14T20:17:38.537Z,95.00
2018-01-14T20:20:06.714Z,95.10
2018-01-14T20:22:34.967Z,95.20
2018-01-14T20:25:03.209Z,95.30
2018-01-14T20:27:31.440Z,95.30
2018-01-14T20:29:59.628Z,95.40
2018-01-14T20:32:27.787Z,95.40
2018-01-14T20:34:55.941Z,95.40
2018-01-14T20:37:24.123Z,95.50
2018-01-14T20:39:52.339Z,95.50
2018-01-14T20:42:20.530Z,95.60
2018-01-14T20:44:54.552Z,95.70
2018-01-14T20:47:23.516Z,95.60
2018-01-14T20:49:51.796Z,95.70
2018-01-14T20:52:19.971Z,95.60
2018-01-14T20:54:48.190Z,95.70
2018-01-14T20:57:16.376Z,95.80
2018-01-14T20:59:44.611Z,95.90
2018-01-14T21:02:12.855Z,95.80
2018-01-14T21:04:41.064Z,96.00
2018-01-14T21:07:09.257Z,96.00
2018-01-14T21:09:37.406Z,96.10
2018-01-14T21:12:05.576Z,96.10
2018-01-14T21:14:33.736Z,96.20
2018-01-14T21:17:01.905Z,96.10
2018-01-14T21:19:30.049Z,96.20
2018-01-14T21:21:58.231Z,96.10
2018-01-14T21:24:27.675Z,96.20
2018-01-14T21:26:56.621Z,96.10
2018-01-14T21:29:24.770Z,96.10
2018-01-14T21:31:52.940Z,96.10
2018-01-14T21:34:21.090Z,96.10
2018-01-14T21:36:49.260Z,96.20
2018-01-14T21:39:18.170Z,96.30
2018-01-14T21:41:46.408Z,96.10
2018-01-14T21:44:14.537Z,96.20
2018-01-14T21:46:42.707Z,96.30
2018-01-14T21:49:10.843Z,96.20
2018-01-14T21:51:39.004Z,96.30
2018-01-14T21:54:07.141Z,96.30
2018-01-14T21:56:35.306Z,96.30
2018-01-14T21:59:03.445Z,96.40
2018-01-14T22:01:32.369Z,96.40
2018-01-14T22:04:00.527Z,96.40
2018-01-14T22:06:29.477Z,96.40
2018-01-14T22:08:57.647Z,96.40
2018-01-14T22:11:25.776Z,96.40
2018-01-14T22:13:53.947Z,96.40
2018-01-14T22:16:22.090Z,96.50
2018-01-14T22:18:51.020Z,96.70
2018-01-14T22:21:19.153Z,96.50
2018-01-14T22:23:47.305Z,96.60
2018-01-14T22:26:15.445Z,96.70
2018-01-14T22:28:43.609Z,96.60
2018-01-14T22:31:11.744Z,96.60
2018-01-14T22:33:40.672Z,96.90
2018-01-14T22:36:08.804Z,96.60
2018-01-14T22:38:36.973Z,96.60
2018-01-14T22:41:05.113Z,96.60
2018-01-14T22:43:33.312Z,96.60
2018-01-14T22:46:01.447Z,96.50
2018-01-14T22:48:29.622Z,96.50
2018-01-14T22:50:57.766Z,96.50
2018-01-14T22:53:25.932Z,96.60
2018-01-14T22:55:54.829Z,96.60
2018-01-14T22:58:22.983Z,96.60
2018-01-14T23:00:51.117Z,96.60
2018-01-14T23:03:19.280Z,96.70
2018-01-14T23:05:47.423Z,96.70
2018-01-14T23:08:15.584Z,96.70
2018-01-14T23:10:44.491Z,96.70
2018-01-14T23:13:12.662Z,96.80
2018-01-14T23:15:41.556Z,96.70
2018-01-14T23:18:09.719Z,96.80
2018-01-14T23:20:38.620Z,97.20
2018-01-14T23:23:06.787Z,96.90
2018-01-14T23:25:35.691Z,96.90
2018-01-14T23:28:03.856Z,97.00
2018-01-14T23:30:32.758Z,96.90
2018-01-14T23:33:00.921Z,96.90
2018-01-14T23:35:29.055Z,96.90
2018-01-14T23:37:57.218Z,96.80
2018-01-14T23:40:25.405Z,96.80
2018-01-14T23:42:53.569Z,96.80
2018-01-14T23:45:21.704Z,96.80
2018-01-14T23:47:49.873Z,96.80
2018-01-14T23:50:18.005Z,96.80
2018-01-14T23:52:46.174Z,96.90
2018-01-14T23:55:14.313Z,96.90
2018-01-14T23:57:42.473Z,97.00
